Time;durP1;ratioP1;P1;durP2;ratioP2;P2;SDS_P1;SDS_P2;PMS_P1;PMS_P2;Temp;Humidity;BMP_temperature;BMP_pressure;BME280_temperature;BME280_humidity;BME280_pressure;Samples;Min_cycle;Max_cycle;Signal;HPM_P1;HPM_P2
2021/10/18 00:01:17;;;;;;;12.95;10.85;;;;;;;;;;4958643;28;20047;-90
2021/10/18 00:03:43;;;;;;;15.13;10.60;;;;;;;;;;4969843;28;20475;-90
2021/10/18 00:06:09;;;;;;;16.45;10.68;;;;;;;;;;4959121;28;20042;-92
2021/10/18 00:08:35;;;;;;;13.45;11.13;;;;;;;;;;4974385;28;20483;-90
2021/10/18 00:11:01;;;;;;;13.27;10.43;;;;;;;;;;4958840;28;20058;-90
2021/10/18 00:13:28;;;;;;;15.18;11.40;;;;;;;;;;4957478;28;20046;-89
2021/10/18 00:15:54;;;;;;;13.88;10.60;;;;;;;;;;4958790;28;20046;-90
2021/10/18 00:18:20;;;;;;;14.43;10.38;;;;;;;;;;4958115;28;20194;-90
2021/10/18 00:20:46;;;;;;;13.15;10.30;;;;;;;;;;4957980;28;20050;-90
2021/10/18 00:23:12;;;;;;;14.43;10.50;;;;;;;;;;4974508;28;20055;-92
2021/10/18 00:25:38;;;;;;;14.05;11.00;;;;;;;;;;4958342;28;20053;-90
2021/10/18 00:28:04;;;;;;;16.35;11.90;;;;;;;;;;4974514;28;20550;-90
2021/10/18 00:30:30;;;;;;;13.18;11.55;;;;;;;;;;4957621;28;20129;-90
2021/10/18 00:32:57;;;;;;;14.85;10.82;;;;;;;;;;4974532;28;20403;-89
2021/10/18 00:35:23;;;;;;;14.93;11.57;;;;;;;;;;4958458;28;20046;-90
2021/10/18 00:37:49;;;;;;;16.08;12.10;;;;;;;;;;4957759;28;20530;-90
2021/10/18 00:40:15;;;;;;;12.55;10.40;;;;;;;;;;4973339;28;20043;-90
2021/10/18 00:42:42;;;;;;;14.25;10.75;;;;;;;;;;4974350;28;20138;-90
2021/10/18 00:45:09;;;;;;;13.43;10.40;;;;;;;;;;4958381;28;20050;-90
2021/10/18 00:47:35;;;;;;;13.10;10.60;;;;;;;;;;4956154;28;20492;-91
2021/10/18 00:50:01;;;;;;;14.75;10.95;;;;;;;;;;4957976;28;20081;-91
2021/10/18 00:52:27;;;;;;;13.98;10.70;;;;;;;;;;4958059;28;20047;-89
2021/10/18 00:54:54;;;;;;;15.32;11.43;;;;;;;;;;4977412;28;20046;-90
2021/10/18 00:57:20;;;;;;;13.85;10.88;;;;;;;;;;4960859;28;20112;-90
2021/10/18 00:59:46;;;;;;;13.85;10.93;;;;;;;;;;4974765;28;20042;-89
2021/10/18 01:02:13;;;;;;;13.07;10.55;;;;;;;;;;4965941;28;20046;-92
2021/10/18 01:04:39;;;;;;;14.52;11.00;;;;;;;;;;4960522;28;20081;-90
2021/10/18 01:07:06;;;;;;;15.55;11.75;;;;;;;;;;4977164;28;20046;-90
2021/10/18 01:09:42;;;;;;;15.67;10.97;;;;;;;;;;5120126;27;2072417;-90
2021/10/18 01:12:08;;;;;;;14.45;11.30;;;;;;;;;;5154559;27;20043;-89
2021/10/18 01:14:35;;;;;;;15.07;11.70;;;;;;;;;;5135395;27;20057;-89
2021/10/18 01:17:01;;;;;;;12.80;10.73;;;;;;;;;;5133401;27;20049;-89
2021/10/18 01:19:27;;;;;;;13.85;10.85;;;;;;;;;;5132859;27;20043;-88
2021/10/18 01:21:58;;;;;;;14.10;10.80;;;;;;;;;;5116186;27;20553;-89
2021/10/18 01:24:24;;;;;;;14.85;11.40;;;;;;;;;;5115633;27;20120;-89
2021/10/18 01:26:51;;;;;;;14.77;12.27;;;;;;;;;;5117431;27;20059;-90
2021/10/18 01:29:17;;;;;;;16.42;11.65;;;;;;;;;;5115448;27;20043;-90
2021/10/18 01:31:43;;;;;;;15.80;12.02;;;;;;;;;;5133338;27;20478;-91
2021/10/18 01:34:09;;;;;;;16.27;12.10;;;;;;;;;;5122170;27;20043;-89
2021/10/18 01:36:36;;;;;;;13.10;10.75;;;;;;;;;;5128618;27;20046;-89
2021/10/18 01:39:02;;;;;;;15.48;11.52;;;;;;;;;;5133039;27;20110;-89
2021/10/18 01:41:28;;;;;;;15.68;11.15;;;;;;;;;;5150226;27;20053;-89
2021/10/18 01:43:54;;;;;;;16.13;11.80;;;;;;;;;;5136662;27;20115;-89
2021/10/18 01:46:20;;;;;;;14.68;11.75;;;;;;;;;;5135707;27;20067;-90
2021/10/18 01:48:46;;;;;;;13.90;11.43;;;;;;;;;;5126000;27;20035;-89
2021/10/18 01:51:13;;;;;;;14.25;11.48;;;;;;;;;;5115379;27;20046;-90
2021/10/18 01:53:39;;;;;;;16.13;12.90;;;;;;;;;;5122263;27;20042;-89
2021/10/18 01:56:05;;;;;;;14.65;12.00;;;;;;;;;;5120373;27;20047;-89
2021/10/18 01:58:32;;;;;;;16.08;12.70;;;;;;;;;;5114999;27;20165;-88
2021/10/18 02:01:02;;;;;;;15.00;12.25;;;;;;;;;;5115659;27;20046;-89
2021/10/18 02:03:28;;;;;;;13.57;11.35;;;;;;;;;;5127619;27;20046;-89
2021/10/18 02:05:54;;;;;;;16.40;11.45;;;;;;;;;;5117593;27;20115;-89
2021/10/18 02:08:20;;;;;;;17.20;13.13;;;;;;;;;;5144506;27;20055;-89
2021/10/18 02:10:47;;;;;;;14.93;12.07;;;;;;;;;;5132114;27;20503;-90
2021/10/18 02:13:13;;;;;;;14.90;12.50;;;;;;;;;;5132225;27;20502;-90
2021/10/18 02:15:39;;;;;;;14.05;11.55;;;;;;;;;;5149791;27;20049;-89
2021/10/18 02:18:05;;;;;;;17.70;12.30;;;;;;;;;;5117341;28;20044;-89
2021/10/18 02:20:32;;;;;;;14.65;12.30;;;;;;;;;;5100688;28;20051;-89
2021/10/18 02:22:58;;;;;;;15.60;12.48;;;;;;;;;;5125161;27;20042;-89
2021/10/18 02:25:24;;;;;;;16.48;12.85;;;;;;;;;;5118185;27;20050;-89
2021/10/18 02:27:50;;;;;;;16.15;12.75;;;;;;;;;;5111125;28;20046;-91
2021/10/18 02:30:16;;;;;;;17.08;14.10;;;;;;;;;;5097723;28;20055;-93
2021/10/18 02:32:42;;;;;;;19.40;14.57;;;;;;;;;;5114946;28;20075;-91
2021/10/18 02:35:09;;;;;;;17.25;12.60;;;;;;;;;;5101305;27;20039;-89
2021/10/18 02:37:35;;;;;;;17.58;13.15;;;;;;;;;;5107598;28;20122;-90
2021/10/18 02:40:02;;;;;;;19.75;13.77;;;;;;;;;;5111497;27;20394;-89
2021/10/18 02:42:28;;;;;;;14.70;12.85;;;;;;;;;;5118107;27;20070;-89
2021/10/18 02:44:54;;;;;;;17.50;13.20;;;;;;;;;;5112904;27;20099;-89
2021/10/18 02:47:20;;;;;;;16.20;13.55;;;;;;;;;;5123114;27;20036;-90
2021/10/18 02:49:46;;;;;;;16.92;13.93;;;;;;;;;;5099790;28;20050;-89
2021/10/18 02:52:12;;;;;;;17.05;13.73;;;;;;;;;;5104717;27;20051;-89
2021/10/18 02:54:39;;;;;;;17.15;13.95;;;;;;;;;;5118043;27;20547;-90
2021/10/18 02:57:06;;;;;;;15.93;13.23;;;;;;;;;;5118266;27;20399;-89
2021/10/18 02:59:32;;;;;;;17.88;13.68;;;;;;;;;;5117564;27;20129;-90
2021/10/18 03:01:58;;;;;;;16.75;13.73;;;;;;;;;;5102484;28;20153;-89
2021/10/18 03:04:24;;;;;;;16.65;13.32;;;;;;;;;;5096362;28;20392;-89
2021/10/18 03:06:50;;;;;;;15.43;13.00;;;;;;;;;;5097216;28;20039;-90
2021/10/18 03:09:16;;;;;;;15.43;12.98;;;;;;;;;;5096751;28;20695;-91
2021/10/18 03:11:42;;;;;;;17.38;14.13;;;;;;;;;;5117782;27;20527;-89
2021/10/18 03:14:09;;;;;;;19.05;13.65;;;;;;;;;;5117808;27;20047;-89
2021/10/18 03:16:35;;;;;;;16.45;13.77;;;;;;;;;;5134048;27;20035;-91
2021/10/18 03:19:01;;;;;;;18.73;13.60;;;;;;;;;;5123183;27;20124;-89
2021/10/18 03:21:27;;;;;;;19.88;14.18;;;;;;;;;;5096901;28;20396;-88
2021/10/18 03:23:53;;;;;;;21.70;15.27;;;;;;;;;;5109131;27;20047;-89
2021/10/18 03:26:19;;;;;;;19.77;14.20;;;;;;;;;;5117132;27;20058;-90
2021/10/18 03:28:45;;;;;;;19.88;15.20;;;;;;;;;;5117439;27;20043;-90
2021/10/18 03:31:12;;;;;;;16.77;13.80;;;;;;;;;;5115750;28;20099;-89
2021/10/18 03:33:39;;;;;;;17.45;13.65;;;;;;;;;;5116721;27;20090;-89
2021/10/18 03:36:05;;;;;;;17.40;14.38;;;;;;;;;;5117443;27;20821;-89
2021/10/18 03:38:32;;;;;;;16.65;14.18;;;;;;;;;;5126028;27;20074;-90
2021/10/18 03:40:58;;;;;;;16.45;13.48;;;;;;;;;;5122848;27;20078;-89
2021/10/18 03:43:25;;;;;;;19.67;14.88;;;;;;;;;;5116127;27;20047;-89
2021/10/18 03:45:51;;;;;;;16.90;13.30;;;;;;;;;;5116446;27;20057;-89
2021/10/18 03:48:17;;;;;;;19.23;14.60;;;;;;;;;;5128376;27;20035;-92
2021/10/18 03:50:43;;;;;;;18.38;13.30;;;;;;;;;;5096276;28;20081;-90
2021/10/18 03:53:10;;;;;;;18.83;14.02;;;;;;;;;;5113065;28;20040;-89
2021/10/18 03:55:36;;;;;;;18.58;14.50;;;;;;;;;;5113318;27;20046;-90
2021/10/18 03:58:02;;;;;;;18.85;14.38;;;;;;;;;;5116889;27;20051;-90
2021/10/18 04:00:28;;;;;;;19.77;14.10;;;;;;;;;;5115885;27;20050;-89
2021/10/18 04:02:54;;;;;;;17.55;13.68;;;;;;;;;;5113127;28;20040;-89
2021/10/18 04:05:20;;;;;;;19.75;14.80;;;;;;;;;;5121098;27;20480;-91
2021/10/18 04:07:48;;;;;;;18.23;13.75;;;;;;;;;;5098248;27;20036;-90
2021/10/18 04:10:14;;;;;;;16.00;13.40;;;;;;;;;;5116469;27;20043;-90
2021/10/18 04:12:40;;;;;;;17.00;13.10;;;;;;;;;;5112702;27;20046;-89
2021/10/18 04:15:07;;;;;;;17.23;13.27;;;;;;;;;;5136586;27;20131;-90
2021/10/18 04:17:33;;;;;;;20.45;15.23;;;;;;;;;;5115044;27;20039;-89
2021/10/18 04:19:59;;;;;;;18.15;13.77;;;;;;;;;;5115163;27;20043;-89
2021/10/18 04:22:25;;;;;;;16.15;13.23;;;;;;;;;;5130498;27;20043;-89
2021/10/18 04:24:51;;;;;;;19.73;13.43;;;;;;;;;;5122241;27;20055;-89
2021/10/18 04:27:17;;;;;;;18.10;13.80;;;;;;;;;;5098939;27;20047;-93
2021/10/18 04:29:43;;;;;;;16.50;13.48;;;;;;;;;;5099438;27;20047;-89
2021/10/18 04:32:10;;;;;;;19.35;14.15;;;;;;;;;;5115736;27;20047;-89
2021/10/18 04:34:36;;;;;;;18.55;13.98;;;;;;;;;;5118538;27;20058;-91
2021/10/18 04:37:02;;;;;;;20.63;14.23;;;;;;;;;;5118977;27;20058;-89
2021/10/18 04:39:28;;;;;;;19.65;14.43;;;;;;;;;;5121944;27;20133;-89
2021/10/18 04:41:54;;;;;;;19.33;14.05;;;;;;;;;;5128409;27;20091;-90
2021/10/18 04:44:20;;;;;;;20.15;14.43;;;;;;;;;;5100651;27;20077;-91
2021/10/18 04:46:46;;;;;;;17.55;14.13;;;;;;;;;;5099205;27;20050;-90
2021/10/18 04:49:12;;;;;;;15.85;13.20;;;;;;;;;;5098825;27;20569;-89
2021/10/18 04:51:38;;;;;;;16.45;13.07;;;;;;;;;;5098582;27;20039;-90
2021/10/18 04:54:04;;;;;;;17.40;13.88;;;;;;;;;;5104725;27;20087;-90
2021/10/18 04:56:30;;;;;;;16.55;14.18;;;;;;;;;;5134384;27;20049;-89
2021/10/18 04:58:57;;;;;;;17.08;13.55;;;;;;;;;;5119034;27;20077;-89
2021/10/18 05:01:23;;;;;;;18.50;14.80;;;;;;;;;;5101227;28;20054;-90
2021/10/18 05:03:49;;;;;;;20.88;14.88;;;;;;;;;;5098474;28;20043;-90
2021/10/18 05:06:15;;;;;;;20.20;15.57;;;;;;;;;;5098997;28;20396;-90
2021/10/18 05:08:41;;;;;;;18.77;13.85;;;;;;;;;;5106187;28;20082;-96
2021/10/18 05:11:07;;;;;;;18.88;14.90;;;;;;;;;;5139228;27;20047;-96
2021/10/18 05:13:33;;;;;;;21.77;14.63;;;;;;;;;;5112714;27;20051;-95
2021/10/18 05:15:59;;;;;;;20.13;15.05;;;;;;;;;;5113771;27;20068;-94
2021/10/18 05:18:26;;;;;;;18.08;14.27;;;;;;;;;;5115600;28;20896;-94
2021/10/18 05:20:52;;;;;;;18.73;14.40;;;;;;;;;;5099984;28;20054;-97
2021/10/18 05:23:18;;;;;;;20.60;14.50;;;;;;;;;;5117214;27;20102;-91
2021/10/18 05:25:44;;;;;;;17.13;13.50;;;;;;;;;;5117280;27;20047;-96
2021/10/18 05:28:10;;;;;;;21.25;15.70;;;;;;;;;;5119327;27;20493;-96
2021/10/18 05:30:37;;;;;;;21.25;15.43;;;;;;;;;;5146546;27;20898;-91
2021/10/18 05:33:03;;;;;;;19.85;14.93;;;;;;;;;;5091004;22;20060;-96
2021/10/18 05:35:30;;;;;;;21.23;15.70;;;;;;;;;;5031944;28;20350;-95
2021/10/18 05:37:56;;;;;;;20.88;14.02;;;;;;;;;;5033647;28;20099;-94
2021/10/18 05:40:23;;;;;;;17.92;13.95;;;;;;;;;;5013818;28;20041;-90
2021/10/18 05:42:50;;;;;;;17.17;13.68;;;;;;;;;;5013637;28;20049;-90
2021/10/18 05:45:16;;;;;;;17.58;14.30;;;;;;;;;;5030003;28;20052;-90
2021/10/18 05:47:52;;;;;;;18.90;14.57;;;;;;;;;;5029736;28;20049;-90
2021/10/18 05:50:18;;;;;;;17.45;14.95;;;;;;;;;;5009502;28;20049;-91
2021/10/18 05:52:44;;;;;;;16.77;14.60;;;;;;;;;;5013029;28;20474;-90
2021/10/18 05:55:10;;;;;;;18.73;13.55;;;;;;;;;;5015486;28;20045;-90
2021/10/18 05:57:46;;;;;;;17.92;14.38;;;;;;;;;;5032848;28;20077;-90
2021/10/18 06:00:13;;;;;;;17.65;15.20;;;;;;;;;;5017259;28;20049;-90
2021/10/18 06:02:39;;;;;;;20.00;14.57;;;;;;;;;;5016240;28;20624;-89
2021/10/18 06:05:05;;;;;;;18.50;14.55;;;;;;;;;;5017063;28;20045;-91
2021/10/18 06:07:31;;;;;;;19.10;14.50;;;;;;;;;;5032584;28;20049;-90
2021/10/18 06:09:57;;;;;;;19.08;14.45;;;;;;;;;;5033495;28;20045;-90
2021/10/18 06:12:23;;;;;;;19.70;14.43;;;;;;;;;;5032989;28;20619;-90
2021/10/18 06:14:49;;;;;;;19.23;14.95;;;;;;;;;;5033382;28;20072;-91
2021/10/18 06:17:15;;;;;;;20.38;16.70;;;;;;;;;;5033125;28;20041;-91
2021/10/18 06:19:41;;;;;;;22.73;15.65;;;;;;;;;;5029828;28;20037;-91
2021/10/18 06:22:07;;;;;;;19.65;15.02;;;;;;;;;;4997787;28;20100;-91
2021/10/18 06:24:33;;;;;;;19.98;15.93;;;;;;;;;;5012705;28;20509;-90
2021/10/18 06:26:59;;;;;;;24.30;16.38;;;;;;;;;;5013421;28;20183;-91
2021/10/18 06:29:27;;;;;;;21.60;15.25;;;;;;;;;;4996099;28;20058;-90
2021/10/18 06:31:53;;;;;;;19.75;15.00;;;;;;;;;;4997169;28;20144;-90
2021/10/18 06:34:19;;;;;;;20.77;15.60;;;;;;;;;;5013449;28;20058;-91
2021/10/18 06:36:45;;;;;;;20.10;16.50;;;;;;;;;;5002446;28;20038;-90
2021/10/18 06:39:11;;;;;;;20.23;15.93;;;;;;;;;;5024639;28;20132;-91
2021/10/18 06:41:37;;;;;;;20.33;16.08;;;;;;;;;;5015975;28;20049;-91
2021/10/18 06:44:03;;;;;;;19.60;16.00;;;;;;;;;;5033254;28;20505;-90
2021/10/18 06:46:29;;;;;;;19.75;15.23;;;;;;;;;;5016485;28;20076;-90
2021/10/18 06:48:55;;;;;;;24.30;16.73;;;;;;;;;;5033985;28;20137;-90
2021/10/18 06:51:21;;;;;;;22.85;17.60;;;;;;;;;;5032515;28;20124;-89
2021/10/18 06:53:52;;;;;;;21.73;16.60;;;;;;;;;;5032450;28;20049;-90
2021/10/18 06:56:18;;;;;;;18.55;15.85;;;;;;;;;;5016627;28;20393;-91
2021/10/18 06:58:44;;;;;;;20.65;16.88;;;;;;;;;;5024558;28;20087;-90
2021/10/18 07:01:11;;;;;;;22.70;16.35;;;;;;;;;;5018464;28;20132;-90
2021/10/18 07:03:37;;;;;;;18.52;16.27;;;;;;;;;;5015521;28;20080;-90
2021/10/18 07:06:03;;;;;;;21.52;16.27;;;;;;;;;;5032803;28;20073;-90
2021/10/18 07:08:29;;;;;;;21.23;16.75;;;;;;;;;;5031571;28;20552;-90
2021/10/18 07:10:55;;;;;;;20.60;16.55;;;;;;;;;;5032570;28;20055;-90
2021/10/18 07:13:21;;;;;;;21.77;17.10;;;;;;;;;;5031818;28;20398;-91
2021/10/18 07:15:47;;;;;;;23.27;17.02;;;;;;;;;;5031649;28;20138;-90
2021/10/18 07:18:13;;;;;;;22.17;17.05;;;;;;;;;;5032251;28;20046;-91
2021/10/18 07:20:39;;;;;;;21.83;16.45;;;;;;;;;;5024425;28;20591;-91
2021/10/18 07:23:09;;;;;;;22.20;16.77;;;;;;;;;;5032542;28;20085;-91
2021/10/18 07:25:35;;;;;;;21.30;16.40;;;;;;;;;;5032588;28;20045;-91
2021/10/18 07:28:01;;;;;;;23.25;18.08;;;;;;;;;;5032989;28;20041;-92
2021/10/18 07:30:28;;;;;;;20.65;15.75;;;;;;;;;;5032128;28;20057;-92
2021/10/18 07:32:54;;;;;;;21.90;16.55;;;;;;;;;;5027017;28;20119;-92
2021/10/18 07:35:22;;;;;;;22.48;17.15;;;;;;;;;;5015659;28;20044;-91
2021/10/18 07:37:54;;;;;;;21.95;16.33;;;;;;;;;;5031578;28;20076;-91
2021/10/18 07:40:20;;;;;;;22.02;17.70;;;;;;;;;;5015527;28;20144;-92
2021/10/18 07:42:46;;;;;;;23.13;17.33;;;;;;;;;;5014622;28;20049;-92
2021/10/18 07:45:13;;;;;;;20.77;16.13;;;;;;;;;;5032129;28;20213;-91
2021/10/18 07:47:41;;;;;;;23.58;16.80;;;;;;;;;;5015567;28;20046;-88
2021/10/18 07:50:10;;;;;;;20.67;16.30;;;;;;;;;;5031196;28;20053;-89
2021/10/18 07:52:36;;;;;;;21.05;16.65;;;;;;;;;;5015510;28;20091;-87
2021/10/18 07:55:04;;;;;;;21.88;17.13;;;;;;;;;;5014829;28;20052;-89
2021/10/18 07:57:30;;;;;;;21.52;17.30;;;;;;;;;;4996412;28;20113;-93
2021/10/18 07:59:58;;;;;;;20.23;16.15;;;;;;;;;;4998598;28;20049;-88
2021/10/18 08:02:25;;;;;;;20.63;16.60;;;;;;;;;;5014417;28;20045;-91
2021/10/18 08:04:51;;;;;;;21.55;17.23;;;;;;;;;;5006465;28;20490;-89
2021/10/18 08:07:17;;;;;;;19.77;17.05;;;;;;;;;;5034128;28;20045;-88
2021/10/18 08:09:43;;;;;;;20.38;17.35;;;;;;;;;;5033419;28;20052;-88
2021/10/18 08:12:09;;;;;;;20.50;16.20;;;;;;;;;;5016425;28;20056;-89
2021/10/18 08:14:35;;;;;;;19.58;17.08;;;;;;;;;;5015913;28;20136;-88
2021/10/18 08:17:04;;;;;;;22.88;17.10;;;;;;;;;;5016077;28;20042;-88
2021/10/18 08:19:31;;;;;;;19.75;16.90;;;;;;;;;;5031791;28;20540;-90
2021/10/18 08:21:57;;;;;;;23.40;17.83;;;;;;;;;;5016326;28;20055;-89
2021/10/18 08:24:23;;;;;;;20.42;16.88;;;;;;;;;;5016174;28;20057;-92
2021/10/18 08:26:49;;;;;;;21.58;18.23;;;;;;;;;;5015908;28;20087;-90
2021/10/18 08:29:15;;;;;;;19.13;15.73;;;;;;;;;;5015761;28;20041;-90
2021/10/18 08:31:42;;;;;;;21.35;17.48;;;;;;;;;;5018643;28;20053;-93
2021/10/18 08:34:08;;;;;;;24.13;17.67;;;;;;;;;;5024385;28;20058;-94
2021/10/18 08:36:37;;;;;;;21.48;17.33;;;;;;;;;;5032161;28;20103;-91
2021/10/18 08:41:45;;;;;;;22.30;17.25;;;;;;;;;;5033144;28;20103;-93
2021/10/18 08:44:15;;;;;;;22.15;17.65;;;;;;;;;;5016908;28;20045;-93
2021/10/18 08:46:42;;;;;;;22.13;17.08;;;;;;;;;;5032731;28;20053;-92
2021/10/18 08:49:08;;;;;;;22.63;17.50;;;;;;;;;;5016913;28;20041;-91
2021/10/18 08:51:34;;;;;;;25.60;18.65;;;;;;;;;;5015720;28;20076;-93
2021/10/18 08:54:01;;;;;;;22.85;17.58;;;;;;;;;;5016287;28;20046;-94
2021/10/18 08:56:27;;;;;;;25.08;17.65;;;;;;;;;;5016364;28;20544;-88
2021/10/18 08:58:53;;;;;;;27.73;18.77;;;;;;;;;;5013814;28;20042;-93
2021/10/18 09:01:19;;;;;;;24.00;18.67;;;;;;;;;;5033580;28;20041;-95
2021/10/18 09:03:46;;;;;;;21.55;17.38;;;;;;;;;;5034255;28;20048;-94
2021/10/18 09:06:21;;;;;;;22.58;18.35;;;;;;;;;;5016450;28;20076;-94
2021/10/18 09:08:51;;;;;;;25.13;17.58;;;;;;;;;;5034525;28;20261;-94
2021/10/18 09:11:17;;;;;;;25.88;18.23;;;;;;;;;;5035924;28;20076;-94
2021/10/18 09:13:52;;;;;;;24.33;16.90;;;;;;;;;;5019906;28;20052;-94
2021/10/18 09:16:29;;;;;;;22.98;18.38;;;;;;;;;;5020371;28;20092;-94
2021/10/18 09:19:05;;;;;;;23.25;17.92;;;;;;;;;;5015825;28;20042;-93
2021/10/18 09:21:36;;;;;;;21.58;17.50;;;;;;;;;;5019500;28;20046;-95
2021/10/18 09:24:03;;;;;;;22.85;18.15;;;;;;;;;;5018766;28;20057;-95
2021/10/18 09:26:31;;;;;;;22.20;17.25;;;;;;;;;;5033474;28;20053;-90
2021/10/18 09:29:02;;;;;;;21.55;17.15;;;;;;;;;;5049911;28;20080;-94
2021/10/18 09:31:28;;;;;;;23.42;18.42;;;;;;;;;;5051893;28;20520;-91
2021/10/18 09:34:03;;;;;;;24.95;17.33;;;;;;;;;;5052168;28;20096;-93
2021/10/18 09:36:29;;;;;;;;;;;;;;;;;;5040617;28;20065;-95
2021/10/18 09:39:14;;;;;;;21.20;16.80;;;;;;;;;;5030323;28;19948;-96
2021/10/18 09:42:02;;;;;;;22.60;17.95;;;;;;;;;;5045300;28;20056;-95
2021/10/18 10:54:10;;;;;;;20.58;16.33;;;;;;;;;;5018203;28;20042;-88
2021/10/18 10:56:44;;;;;;;20.25;16.77;;;;;;;;;;4995313;28;20045;-88
2021/10/18 10:59:20;;;;;;;19.97;16.10;;;;;;;;;;5031331;28;20049;-89
2021/10/18 11:01:48;;;;;;;18.35;15.95;;;;;;;;;;5015438;28;20292;-88
2021/10/18 11:04:30;;;;;;;19.85;16.38;;;;;;;;;;5030515;28;20049;-90
2021/10/18 11:07:02;;;;;;;20.60;17.38;;;;;;;;;;5029812;28;20099;-89
2021/10/18 11:09:47;;;;;;;20.60;16.52;;;;;;;;;;5031639;28;20045;-90
2021/10/18 11:12:32;;;;;;;20.20;16.23;;;;;;;;;;5032355;28;20160;-91
2021/10/18 11:15:03;;;;;;;19.90;16.58;;;;;;;;;;5023146;28;20056;-90
2021/10/18 11:17:30;;;;;;;21.20;15.93;;;;;;;;;;5032126;28;20041;-90
2021/10/18 11:20:01;;;;;;;19.95;16.13;;;;;;;;;;5032025;28;20053;-89
2021/10/18 11:22:34;;;;;;;19.30;16.27;;;;;;;;;;5015863;28;20103;-88
2021/10/18 11:25:01;;;;;;;22.65;16.88;;;;;;;;;;5015645;28;20049;-90
2021/10/18 11:27:28;;;;;;;20.77;16.77;;;;;;;;;;5032139;28;20442;-89
2021/10/18 11:29:55;;;;;;;20.90;16.83;;;;;;;;;;5040942;28;20664;-89
2021/10/18 11:32:21;;;;;;;20.27;17.02;;;;;;;;;;5051770;28;20053;-90
2021/10/18 11:34:47;;;;;;;21.15;16.90;;;;;;;;;;5051738;28;20052;-89
2021/10/18 11:37:13;;;;;;;19.27;16.85;;;;;;;;;;5035001;28;20052;-90
2021/10/18 11:39:39;;;;;;;20.92;17.63;;;;;;;;;;5018111;28;20046;-91
2021/10/18 11:42:07;;;;;;;22.02;17.83;;;;;;;;;;5012587;28;20046;-90
2021/10/18 11:44:40;;;;;;;22.10;15.35;;;;;;;;;;5012619;28;20055;-91
2021/10/18 11:47:20;;;;;;;20.75;16.58;;;;;;;;;;4998059;28;20053;-90
2021/10/18 11:50:03;;;;;;;19.92;16.90;;;;;;;;;;4996268;28;20089;-90
2021/10/18 11:52:29;;;;;;;20.23;16.27;;;;;;;;;;5015392;28;20049;-89
2021/10/18 11:54:55;;;;;;;20.38;17.20;;;;;;;;;;5032593;28;20076;-90
2021/10/18 11:57:21;;;;;;;19.00;16.77;;;;;;;;;;5017069;28;20136;-90
2021/10/18 11:59:47;;;;;;;19.30;16.08;;;;;;;;;;5015197;28;20052;-90
2021/10/18 12:02:23;;;;;;;20.05;15.88;;;;;;;;;;5032416;28;20061;-90
2021/10/18 12:04:59;;;;;;;18.40;15.20;;;;;;;;;;5013541;28;20049;-90
2021/10/18 12:07:40;;;;;;;19.20;15.23;;;;;;;;;;5030868;28;20137;-90
2021/10/18 12:10:17;;;;;;;21.08;15.95;;;;;;;;;;5031719;28;20072;-92
2021/10/18 12:13:03;;;;;;;19.27;15.48;;;;;;;;;;5030321;28;20124;-91
2021/10/18 12:15:30;;;;;;;20.95;14.65;;;;;;;;;;5010956;28;20504;-90
2021/10/18 12:17:57;;;;;;;19.45;15.35;;;;;;;;;;5014156;28;20048;-91
2021/10/18 12:20:23;;;;;;;19.33;15.77;;;;;;;;;;5014355;28;20050;-90
2021/10/18 12:23:06;;;;;;;18.05;15.50;;;;;;;;;;5030048;28;20071;-91
2021/10/18 12:25:33;;;;;;;16.63;14.80;;;;;;;;;;4995402;28;20053;-87
2021/10/18 12:28:00;;;;;;;16.27;14.55;;;;;;;;;;4994732;28;20046;-90
2021/10/18 12:30:56;;;;;;;17.30;14.02;;;;;;;;;;5024534;28;20059;-89
2021/10/18 12:33:22;;;;;;;16.20;13.80;;;;;;;;;;5014041;28;20473;-92
2021/10/18 12:35:58;;;;;;;17.30;14.27;;;;;;;;;;5030473;28;20051;-91
2021/10/18 12:38:28;;;;;;;16.55;13.68;;;;;;;;;;5029948;28;20053;-91
2021/10/18 12:41:19;;;;;;;17.35;14.32;;;;;;;;;;5014336;28;20048;-89
2021/10/18 12:43:48;;;;;;;16.92;14.38;;;;;;;;;;5008367;28;20054;-88
2021/10/18 12:46:19;;;;;;;18.02;14.32;;;;;;;;;;4995117;28;20054;-87
2021/10/18 12:48:56;;;;;;;15.63;13.77;;;;;;;;;;4994093;28;20049;-88
2021/10/18 12:51:43;;;;;;;17.30;14.30;;;;;;;;;;4995076;28;20042;-87
2021/10/18 12:54:20;;;;;;;15.77;13.18;;;;;;;;;;4994486;28;20379;-88
2021/10/18 12:56:59;;;;;;;16.75;13.30;;;;;;;;;;4994485;28;20100;-88
2021/10/18 12:59:25;;;;;;;16.20;13.57;;;;;;;;;;5011103;28;20486;-88
2021/10/18 13:02:10;;;;;;;16.35;13.50;;;;;;;;;;4994427;28;20077;-89
2021/10/18 13:04:37;;;;;;;16.95;13.43;;;;;;;;;;5017326;28;20148;-92
2021/10/18 13:07:03;;;;;;;15.95;13.63;;;;;;;;;;5030840;28;20106;-88
2021/10/18 13:09:30;;;;;;;16.88;13.27;;;;;;;;;;5030410;28;20048;-88
2021/10/18 13:11:56;;;;;;;15.50;13.57;;;;;;;;;;5023686;28;20099;-88
2021/10/18 13:14:25;;;;;;;18.90;13.45;;;;;;;;;;5031593;28;20102;-94
2021/10/18 13:16:51;;;;;;;16.00;13.55;;;;;;;;;;5029523;28;20072;-88
2021/10/18 13:19:17;;;;;;;15.32;13.40;;;;;;;;;;5029091;28;20050;-89
2021/10/18 13:21:45;;;;;;;15.05;12.52;;;;;;;;;;5012724;28;20081;-89
2021/10/18 13:24:12;;;;;;;15.48;13.38;;;;;;;;;;5013683;28;20045;-87
2021/10/18 13:26:38;;;;;;;14.45;12.95;;;;;;;;;;5013864;28;20053;-89
2021/10/18 13:29:04;;;;;;;17.00;13.23;;;;;;;;;;5013672;28;20041;-87
2021/10/18 13:31:30;;;;;;;14.98;13.20;;;;;;;;;;5030396;28;20124;-87
2021/10/18 13:33:56;;;;;;;16.27;13.30;;;;;;;;;;5028429;28;20056;-87
2021/10/18 13:36:22;;;;;;;16.27;13.43;;;;;;;;;;5013879;28;20488;-88
2021/10/18 13:38:49;;;;;;;16.77;13.25;;;;;;;;;;5011827;28;20049;-87
2021/10/18 13:41:15;;;;;;;16.15;13.27;;;;;;;;;;5029912;28;20385;-88
2021/10/18 13:43:41;;;;;;;17.02;13.38;;;;;;;;;;5028692;28;20048;-91
2021/10/18 13:46:07;;;;;;;16.00;13.30;;;;;;;;;;5019315;28;20100;-90
2021/10/18 13:48:33;;;;;;;17.20;13.10;;;;;;;;;;5009877;28;20407;-90
2021/10/18 13:50:59;;;;;;;16.52;12.88;;;;;;;;;;4992920;28;20042;-89
2021/10/18 13:53:25;;;;;;;16.67;13.35;;;;;;;;;;4994847;28;20061;-92
2021/10/18 13:55:52;;;;;;;14.05;12.50;;;;;;;;;;4995116;28;20042;-92
2021/10/18 13:58:19;;;;;;;16.23;13.25;;;;;;;;;;4995007;28;20084;-89
2021/10/18 14:00:45;;;;;;;15.93;12.40;;;;;;;;;;4994073;28;20090;-90
2021/10/18 14:03:13;;;;;;;16.20;13.30;;;;;;;;;;4994928;28;20058;-91
2021/10/18 14:05:39;;;;;;;18.63;12.88;;;;;;;;;;5010062;28;20489;-93
2021/10/18 14:08:05;;;;;;;15.30;13.05;;;;;;;;;;5014646;28;20473;-91
2021/10/18 14:10:31;;;;;;;15.75;12.75;;;;;;;;;;5030767;28;20068;-91
2021/10/18 14:12:57;;;;;;;14.70;12.27;;;;;;;;;;5011633;28;20713;-92
2021/10/18 14:15:24;;;;;;;14.75;12.30;;;;;;;;;;5029373;28;20490;-91
2021/10/18 14:17:50;;;;;;;17.40;14.13;;;;;;;;;;5017568;28;20041;-91
2021/10/18 14:20:16;;;;;;;16.17;12.82;;;;;;;;;;5018535;28;20091;-90
2021/10/18 14:22:42;;;;;;;15.23;13.10;;;;;;;;;;5034479;28;20050;-92
2021/10/18 14:25:09;;;;;;;15.32;13.20;;;;;;;;;;5018527;28;20057;-92
2021/10/18 14:27:36;;;;;;;15.13;13.10;;;;;;;;;;5034345;28;20107;-91
2021/10/18 14:30:04;;;;;;;14.70;12.88;;;;;;;;;;5017638;28;20041;-91
2021/10/18 14:32:30;;;;;;;14.68;12.50;;;;;;;;;;5017151;28;20053;-91
2021/10/18 14:34:56;;;;;;;14.80;12.73;;;;;;;;;;5005434;28;20046;-90
2021/10/18 14:37:23;;;;;;;19.42;14.13;;;;;;;;;;5028804;28;20125;-91
2021/10/18 14:39:49;;;;;;;16.00;13.65;;;;;;;;;;5042164;28;20037;-92
2021/10/18 14:42:15;;;;;;;15.15;13.18;;;;;;;;;;5022791;28;20049;-91
2021/10/18 14:44:41;;;;;;;18.17;14.38;;;;;;;;;;5017169;28;20045;-92
2021/10/18 14:47:08;;;;;;;17.85;13.45;;;;;;;;;;5017531;28;20105;-92
2021/10/18 14:49:34;;;;;;;16.45;13.25;;;;;;;;;;5034010;28;20500;-91
2021/10/18 14:52:00;;;;;;;16.70;13.35;;;;;;;;;;5017727;28;20659;-92
2021/10/18 14:54:27;;;;;;;14.38;12.63;;;;;;;;;;5016890;28;20049;-91
2021/10/18 14:56:53;;;;;;;15.60;13.00;;;;;;;;;;5017316;28;20049;-92
2021/10/18 14:59:19;;;;;;;17.25;13.65;;;;;;;;;;5017884;28;20077;-92
2021/10/18 15:01:45;;;;;;;16.45;13.25;;;;;;;;;;5016976;28;20061;-91
2021/10/18 15:04:11;;;;;;;16.50;12.93;;;;;;;;;;5035350;28;20121;-91
2021/10/18 15:06:37;;;;;;;18.88;13.98;;;;;;;;;;5018086;28;20482;-93
2021/10/18 15:09:04;;;;;;;15.95;12.98;;;;;;;;;;5016771;28;20042;-92
2021/10/18 15:11:32;;;;;;;19.17;13.93;;;;;;;;;;5017462;28;20068;-90
2021/10/18 15:14:06;;;;;;;17.15;13.82;;;;;;;;;;5034057;28;20172;-91
2021/10/18 15:16:35;;;;;;;16.17;13.98;;;;;;;;;;5018040;28;20049;-92
2021/10/18 15:19:02;;;;;;;15.63;13.77;;;;;;;;;;5013633;28;20105;-89
2021/10/18 15:21:32;;;;;;;15.90;14.02;;;;;;;;;;5013645;28;20066;-89
2021/10/18 15:23:58;;;;;;;16.38;13.73;;;;;;;;;;5013762;28;20578;-90
2021/10/18 15:26:26;;;;;;;17.30;14.05;;;;;;;;;;5030566;28;20139;-89
2021/10/18 15:28:52;;;;;;;19.08;15.40;;;;;;;;;;5013589;28;20129;-90
2021/10/18 15:31:20;;;;;;;16.52;14.57;;;;;;;;;;5014134;28;20099;-89